To NAV CANADA Home Page Login to a new session Search on AWWS site Feedback and Comments Disclaimer Vers la page française équivalente Tips FAQ What's new on the site To the Forecasts and Observations / NOTAM section To "File a Flight Plan" website Publications and other links Update of the User's profile FIC Telephone Numbers My Weather Data Folder Route Weather Data Regional Weather Data Local Weather Data To the Forecasts and Observations / NOTAM section
Request Generated 04/21/2014 at 14:40:58 UTC . Weather information available at that time is displayed.

METAR/TAF

MONTREAL/ST-HUBERT/QC    (show WxCam)

METAR CYHU 211400Z AUTO 18008KT 9SM OVC080 10/01 A3000 RMK WX MISG
VIS MISG SLP159=
METAR CYHU 211300Z AUTO 19008KT 9SM OVC080 09/00 A3003 RMK SLP169=
METAR CYHU 211200Z AUTO 19009KT 9SM OVC085 09/00 A3004 RMK SLP171=

TAF CYHU 211138Z 2112/2212 18012KT P6SM OVC130
BECMG 2114/2116 23010G20KT
BECMG 2122/2124 23005KT
FM220600 VRB03KT P6SM -SHRA OVC050
FM221100 10005KT P6SM BKN080
RMK FCST BASED ON AUTO OBS. NXT FCST BY 211800Z=
Your time UTC time
Weather data provided by Environment Canada and NAV CANADA